This is the latest recevied weather packets stored in our database for station/object OE-11140. If no packets are shown the sender has not sent any weather packets the latest 10 day(s).
| Time | Temp. | Humidity | Pressure | Rain* | Wind** | Luminosity | Snow |
|---|---|---|---|---|---|---|---|
| 1787996116 | 19.44° C | 61% | 1017.1 hPa | 0 mm | - | 709 W/m² | - |
| 1787995516 | 19.44° C | 61% | 1017.2 hPa | 0 mm | - | 696 W/m² | - |
| 1787994689 | 20° C | 61% | 1017.2 hPa | 0 mm | - | 702 W/m² | - |
| 1787994316 | 18.33° C | 64% | 1017.7 hPa | 0 mm | - | 649 W/m² | - |
| 1787993716 | 18.33° C | 67% | 1017.8 hPa | 0 mm | - | 577 W/m² | - |
| 1787992888 | 17.22° C | 68% | 1018.3 hPa | 0 mm | - | 384 W/m² | - |
| 1787992515 | 17.22° C | 69% | 1018.3 hPa | 0 mm | - | 378 W/m² | - |
| 1787991915 | 16.67° C | 74% | 1018.6 hPa | 0 mm | - | 272 W/m² | - |
| 1787991089 | 16.11° C | 75% | 1018.8 hPa | 0 mm | - | 265 W/m² | - |
| 1787990715 | 16.11° C | 79% | 1018.7 hPa | 0 mm | - | 245 W/m² | - |
| 1787990116 | 15.56° C | 78% | 1018.9 hPa | 0 mm | - | 205 W/m² | - |
| 1787989288 | 15.56° C | 80% | 1019 hPa | 0 mm | - | 265 W/m² | - |
| 1787988916 | 15° C | 84% | 1018.9 hPa | 0 mm | - | 212 W/m² | - |
| 1787988315 | 15° C | 84% | 1018.9 hPa | 0 mm | - | 152 W/m² | - |
| 1787987489 | 14.44° C | 85% | 1019 hPa | 0 mm | - | 119 W/m² | - |
| 1787987116 | 14.44° C | 86% | 1019.1 hPa | 0 mm | - | 86 W/m² | - |
| 1787986516 | 14.44° C | 87% | 1019.1 hPa | 0 mm | - | 53 W/m² | - |
| 1787985689 | 13.89° C | 86% | 1019.2 hPa | 0 mm | - | 40 W/m² | - |
| 1787985315 | 14.44° C | 87% | 1019.2 hPa | 0 mm | - | 46 W/m² | - |
| 1787984716 | 14.44° C | 86% | 1019.1 hPa | 0 mm | - | 60 W/m² | - |
| 1787983889 | 13.89° C | 86% | 1019.1 hPa | 0 mm | - | 80 W/m² | - |
| 1787982916 | 13.33° C | 88% | 1018.8 hPa | 0 mm | - | 73 W/m² | - |
| 1787982088 | 13.33° C | 89% | 1018.9 hPa | 0 mm | - | 73 W/m² | - |
| 1787981716 | 13.33° C | 90% | 1018.8 hPa | 0 mm | - | 40 W/m² | - |
| 1787981115 | 13.33° C | 90% | 1018.8 hPa | 0 mm | - | 27 W/m² | - |
* Rain latest hour (hover to see other rain measurements)
** Current wind speed in m/s (hover to see current wind gust speed)